Time;durP1;ratioP1;P1;durP2;ratioP2;P2;SDS_P1;SDS_P2;PMS_P1;PMS_P2;Temp;Humidity;BMP_temperature;BMP_pressure;BME280_temperature;BME280_humidity;BME280_pressure;Samples;Min_cycle;Max_cycle;Signal;HPM_P1;HPM_P2
2021/05/12 00:01:42;;;;;;;0.33;0.20;;;;;;;9.03;72.21;100892.29;1701780;82;21584;-40
2021/05/12 00:04:08;;;;;;;0.10;0.10;;;;;;;8.97;72.38;100894.67;1698062;83;21003;-40
2021/05/12 00:06:35;;;;;;;0.10;0.10;;;;;;;8.92;72.60;100891.89;1695152;82;21629;-40
2021/05/12 00:09:01;;;;;;;0.10;0.10;;;;;;;8.89;72.68;100891.05;1686236;83;21073;-41
2021/05/12 00:11:27;;;;;;;0.20;0.20;;;;;;;8.88;72.71;100892.14;1689188;83;21007;-40
2021/05/12 00:13:53;;;;;;;0.10;0.10;;;;;;;8.90;72.70;100883.18;1687477;83;21059;-40
2021/05/12 00:16:20;;;;;;;0.03;0.03;;;;;;;8.92;72.64;100883.72;1709543;83;21484;-39
2021/05/12 00:18:47;;;;;;;0.20;0.20;;;;;;;8.92;72.46;100886.98;1715469;82;21515;-41
2021/05/12 00:21:26;;;;;;;0.00;0.00;;;;;;;8.90;72.47;100891.36;1710276;82;21056;-40
2021/05/12 00:24:00;;;;;;;0.37;0.37;;;;;;;8.87;72.59;100886.39;1698999;83;21499;-40
2021/05/12 00:26:13;;;;;;;0.98;0.37;;;;;;;8.82;72.78;100889.89;1678471;83;21081;-40
2021/05/12 00:28:39;;;;;;;0.10;0.10;;;;;;;8.75;73.22;100889.81;1703579;82;21556;-41
2021/05/12 00:31:06;;;;;;;0.37;0.37;;;;;;;8.69;73.53;100885.41;1695267;83;21047;-40
2021/05/12 00:33:32;;;;;;;0.28;0.28;;;;;;;8.69;73.79;100893.58;1702411;83;21055;-39
2021/05/12 00:35:59;;;;;;;0.10;0.10;;;;;;;8.69;73.90;100895.75;1707675;82;21072;-40
2021/05/12 00:38:25;;;;;;;0.25;0.25;;;;;;;8.67;74.04;100891.09;1690317;83;21106;-40
2021/05/12 00:40:51;;;;;;;0.20;0.20;;;;;;;8.68;73.94;100886.46;1703275;82;21036;-40
2021/05/12 00:43:18;;;;;;;0.25;0.25;;;;;;;8.67;74.10;100895.73;1721473;81;21039;-40
2021/05/12 00:45:44;;;;;;;0.20;0.20;;;;;;;8.63;74.25;100893.22;1721068;81;21067;-41
2021/05/12 00:48:10;;;;;;;0.15;0.15;;;;;;;8.58;74.35;100892.62;1743396;81;21033;-41
2021/05/12 00:50:37;;;;;;;0.50;0.35;;;;;;;8.54;74.47;100893.69;1719180;81;21047;-40
2021/05/12 00:53:04;;;;;;;0.13;0.13;;;;;;;8.50;74.84;100888.45;1711709;81;21064;-40
2021/05/12 00:55:31;;;;;;;0.20;0.20;;;;;;;8.46;74.98;100885.97;1720886;81;21063;-40
2021/05/12 00:57:57;;;;;;;0.20;0.20;;;;;;;8.43;75.19;100885.09;1747061;80;21052;-40
2021/05/12 01:00:24;;;;;;;0.13;0.13;;;;;;;8.37;75.54;100891.55;1732376;81;21043;-39
2021/05/12 01:02:52;;;;;;;0.10;0.10;;;;;;;8.34;75.60;100881.98;1728931;81;21034;-40
2021/05/12 01:05:36;;;;;;;0.68;0.53;;;;;;;8.28;75.70;100882.98;1731283;81;21059;-41
2021/05/12 01:08:04;;;;;;;0.10;0.10;;;;;;;8.27;75.82;100884.61;1707998;83;21123;-39
2021/05/12 01:10:32;;;;;;;0.13;0.13;;;;;;;8.26;75.83;100880.23;1708117;81;21453;-40
2021/05/12 01:12:59;;;;;;;0.00;0.00;;;;;;;8.28;75.97;100876.72;1722846;81;21036;-41
2021/05/12 01:15:28;;;;;;;0.20;0.20;;;;;;;8.27;76.11;100880.53;1752758;81;21040;-39
2021/05/12 01:18:17;;;;;;;0.10;0.10;;;;;;;8.22;76.31;100873.66;1731921;81;21028;-42
2021/05/12 01:20:55;;;;;;;0.53;0.40;;;;;;;8.16;76.34;100876.33;1721841;82;21050;-40
2021/05/12 01:23:23;;;;;;;0.10;0.10;;;;;;;8.06;76.60;100872.11;1739982;80;21051;-40
2021/05/12 01:25:51;;;;;;;0.30;0.30;;;;;;;7.98;76.92;100869.80;1731982;81;21023;-39
2021/05/12 01:28:17;;;;;;;0.10;0.10;;;;;;;7.92;77.18;100876.27;1712175;81;21047;-41
2021/05/12 01:31:09;;;;;;;0.10;0.10;;;;;;;7.85;77.67;100867.46;1702465;83;21055;-40
2021/05/12 01:33:36;;;;;;;0.10;0.10;;;;;;;7.82;78.02;100872.05;1716310;81;21441;-40
2021/05/12 01:36:04;;;;;;;0.10;0.10;;;;;;;7.82;78.19;100862.53;1703684;83;21048;-40
2021/05/12 01:38:31;;;;;;;0.30;0.28;;;;;;;7.80;78.29;100860.59;1713514;82;20995;-41
2021/05/12 01:40:58;;;;;;;0.10;0.10;;;;;;;7.78;78.51;100863.55;1745124;81;21047;-40
2021/05/12 01:43:24;;;;;;;0.65;0.28;;;;;;;7.78;78.61;100858.66;1711050;82;21046;-40
2021/05/12 01:45:50;;;;;;;0.10;0.10;;;;;;;7.74;78.80;100855.62;1709951;82;21102;-40
2021/05/12 01:48:17;;;;;;;0.25;0.25;;;;;;;7.72;78.84;100857.77;1728892;81;21019;-41
2021/05/12 01:50:44;;;;;;;0.15;0.15;;;;;;;7.67;78.94;100854.43;1707767;82;21027;-39
2021/05/12 01:53:11;;;;;;;0.25;0.20;;;;;;;7.63;79.36;100855.17;1719089;82;21099;-41
2021/05/12 01:55:38;;;;;;;0.15;0.15;;;;;;;7.62;79.42;100857.08;1732150;80;21568;-40
2021/05/12 01:58:05;;;;;;;0.55;0.28;;;;;;;7.57;79.45;100863.80;1693457;83;21032;-40
2021/05/12 02:00:38;;;;;;;0.25;0.25;;;;;;;7.50;79.81;100865.87;1693915;83;21083;-41
2021/05/12 02:03:07;;;;;;;0.70;0.25;;;;;;;7.46;80.22;100855.19;1692363;83;21079;-41
2021/05/12 02:05:34;;;;;;;0.20;0.20;;;;;;;7.47;80.34;100863.66;1692306;83;21043;-40
2021/05/12 02:08:02;;;;;;;0.00;0.00;;;;;;;7.44;80.40;100861.41;1688701;83;21031;-40
2021/05/12 02:10:28;;;;;;;0.13;0.13;;;;;;;7.43;80.42;100861.14;1717818;83;21051;-40
2021/05/12 02:12:55;;;;;;;0.00;0.00;;;;;;;7.39;80.46;100862.15;1688995;83;21123;-40
2021/05/12 02:15:22;;;;;;;0.20;0.20;;;;;;;7.37;80.69;100848.52;1721307;81;21048;-40
2021/05/12 02:17:48;;;;;;;0.17;0.17;;;;;;;7.40;80.80;100848.05;1741627;81;21043;-40
2021/05/12 02:20:16;;;;;;;0.13;0.13;;;;;;;7.45;80.84;100860.36;1712384;82;21955;-40
2021/05/12 02:22:42;;;;;;;0.20;0.20;;;;;;;7.46;80.77;100855.19;1715633;81;21511;-39
2021/05/12 02:25:10;;;;;;;0.10;0.10;;;;;;;7.46;81.06;100856.55;1770008;80;21048;-42
2021/05/12 02:27:36;;;;;;;0.78;0.28;;;;;;;7.45;81.12;100852.20;1718269;82;21019;-41
2021/05/12 02:30:05;;;;;;;0.10;0.10;;;;;;;7.42;81.31;100857.59;1721180;81;21111;-40
2021/05/12 02:32:32;;;;;;;0.10;0.10;;;;;;;7.42;81.54;100860.83;1707227;82;21465;-40
2021/05/12 02:34:58;;;;;;;0.00;0.00;;;;;;;7.44;81.85;100854.61;1693832;83;21007;-40
2021/05/12 02:37:25;;;;;;;0.20;0.20;;;;;;;7.45;81.83;100857.64;1690745;83;21053;-40
2021/05/12 02:39:51;;;;;;;0.10;0.10;;;;;;;7.47;81.84;100854.14;1704852;83;21022;-40
2021/05/12 02:42:18;;;;;;;0.10;0.10;;;;;;;7.56;81.67;100854.52;1706374;82;21098;-40
2021/05/12 02:44:44;;;;;;;0.30;0.30;;;;;;;7.63;81.54;100849.19;1712438;83;21034;-41
2021/05/12 02:47:10;;;;;;;0.00;0.00;;;;;;;7.68;81.51;100854.70;1712180;83;21082;-40
2021/05/12 02:49:37;;;;;;;0.10;0.10;;;;;;;7.73;81.70;100855.32;1712329;82;21118;-40
2021/05/12 02:52:04;;;;;;;0.00;0.00;;;;;;;7.77;81.79;100859.19;1688448;84;21045;-41
2021/05/12 02:54:31;;;;;;;0.10;0.10;;;;;;;7.85;81.90;100862.02;1688634;84;21093;-41
2021/05/12 02:56:57;;;;;;;0.10;0.10;;;;;;;7.92;82.05;100855.86;1688695;84;21148;-39
2021/05/12 02:59:23;;;;;;;0.00;0.00;;;;;;;8.03;81.81;100855.45;1697494;82;21559;-40
2021/05/12 03:01:50;;;;;;;2.27;1.55;;;;;;;8.14;81.73;100848.52;1742273;82;21023;-41
2021/05/12 03:04:16;;;;;;;0.00;0.00;;;;;;;8.26;80.55;100848.92;1717680;82;21476;-41
2021/05/12 03:06:42;;;;;;;0.10;0.10;;;;;;;8.35;80.38;100846.85;1742255;82;21084;-41
2021/05/12 03:09:09;;;;;;;0.10;0.10;;;;;;;8.40;79.62;100849.66;1741441;82;21135;-39
2021/05/12 03:11:35;;;;;;;0.10;0.10;;;;;;;8.42;78.89;100849.97;1741678;82;21056;-39
2021/05/12 03:14:03;;;;;;;0.30;0.20;;;;;;;8.42;78.87;100846.70;1742088;82;21059;-40
2021/05/12 03:16:30;;;;;;;0.10;0.10;;;;;;;8.40;78.67;100851.57;1742388;82;21044;-40
2021/05/12 03:18:56;;;;;;;0.10;0.10;;;;;;;8.35;78.53;100848.22;1715631;82;21071;-40
2021/05/12 03:21:23;;;;;;;0.20;0.20;;;;;;;8.31;78.51;100849.82;1688512;84;21020;-40
2021/05/12 03:23:49;;;;;;;0.55;0.55;;;;;;;8.30;78.37;100844.62;1688575;84;21047;-40
2021/05/12 03:26:17;;;;;;;0.20;0.20;;;;;;;8.26;78.48;100838.88;1693662;82;21073;-42
2021/05/12 03:28:44;;;;;;;0.57;0.55;;;;;;;8.24;78.71;100837.48;1742452;82;21040;-42
2021/05/12 03:31:11;;;;;;;0.00;0.00;;;;;;;8.22;78.64;100837.73;1742500;82;21071;-40
2021/05/12 03:33:39;;;;;;;0.10;0.10;;;;;;;8.26;78.87;100833.42;1742412;82;21040;-40
2021/05/12 03:36:05;;;;;;;0.20;0.20;;;;;;;8.31;78.91;100836.75;1727511;82;21039;-40
2021/05/12 03:38:33;;;;;;;0.20;0.20;;;;;;;8.35;78.80;100834.59;1688603;84;21047;-41
2021/05/12 03:41:00;;;;;;;0.10;0.10;;;;;;;8.45;78.70;100824.39;1688209;84;21039;-40
2021/05/12 03:43:26;;;;;;;0.10;0.10;;;;;;;8.54;78.66;100829.67;1691000;83;21107;-40
2021/05/12 03:45:53;;;;;;;8.85;0.95;;;;;;;8.62;78.74;100833.83;1705170;82;21531;-41
2021/05/12 03:48:19;;;;;;;0.00;0.00;;;;;;;8.66;78.34;100836.88;1702998;83;21026;-39
2021/05/12 03:50:45;;;;;;;0.28;0.28;;;;;;;8.66;78.05;100834.98;1702755;82;21023;-41
2021/05/12 03:53:11;;;;;;;0.30;0.30;;;;;;;8.63;78.14;100835.50;1702845;82;21007;-40
2021/05/12 03:55:38;;;;;;;0.47;0.47;;;;;;;8.59;78.11;100846.06;1689185;84;21119;-39
2021/05/12 03:58:04;;;;;;;0.00;0.00;;;;;;;8.54;78.20;100835.12;1689013;84;21039;-41
2021/05/12 04:00:31;;;;;;;0.15;0.15;;;;;;;8.49;78.34;100839.16;1683827;84;21563;-40
2021/05/12 04:02:57;;;;;;;0.10;0.10;;;;;;;8.45;78.72;100838.01;1688745;82;21082;-40
2021/05/12 04:05:26;;;;;;;0.10;0.10;;;;;;;8.42;78.99;100836.34;1730803;82;21539;-40
2021/05/12 04:07:52;;;;;;;0.10;0.10;;;;;;;8.43;78.87;100831.98;1685330;84;21098;-40
2021/05/12 04:10:19;;;;;;;0.10;0.10;;;;;;;8.45;79.19;100836.64;1708045;82;21035;-40
2021/05/12 04:12:45;;;;;;;0.20;0.20;;;;;;;8.46;79.61;100837.49;1702448;82;20986;-39
2021/05/12 04:15:12;;;;;;;0.57;0.10;;;;;;;8.49;79.71;100837.79;1717452;82;21584;-42
2021/05/12 04:17:39;;;;;;;0.10;0.10;;;;;;;8.53;79.44;100834.84;1679741;84;20928;-40
2021/05/12 04:20:12;;;;;;;0.00;0.00;;;;;;;8.56;79.77;100838.41;1704572;82;22010;-40
2021/05/12 04:22:39;;;;;;;0.10;0.10;;;;;;;8.58;79.79;100838.98;1702361;84;21666;-40
2021/05/12 04:25:08;;;;;;;0.03;0.03;;;;;;;8.61;79.73;100838.47;1685153;82;21019;-40
2021/05/12 04:27:34;;;;;;;0.55;0.08;;;;;;;8.65;79.83;100837.94;1686518;83;21016;-40
2021/05/12 04:30:01;;;;;;;0.55;0.55;;;;;;;8.66;79.87;100838.25;1715990;83;21046;-40
2021/05/12 04:32:27;;;;;;;0.00;0.00;;;;;;;8.68;80.13;100831.97;1719703;83;21088;-40
2021/05/12 04:34:53;;;;;;;0.20;0.20;;;;;;;8.71;80.08;100839.66;1719244;83;21011;-40
2021/05/12 04:37:20;;;;;;;0.23;0.10;;;;;;;8.72;79.91;100833.11;1695169;83;21051;-41
2021/05/12 04:39:46;;;;;;;0.80;0.80;;;;;;;8.74;80.24;100836.41;1684353;82;21090;-41
2021/05/12 04:42:13;;;;;;;0.10;0.10;;;;;;;8.76;80.29;100838.34;1707818;83;21030;-40
2021/05/12 04:44:39;;;;;;;0.10;0.10;;;;;;;8.82;80.31;100840.84;1714827;82;21463;-40
2021/05/12 04:47:05;;;;;;;0.20;0.20;;;;;;;8.88;80.30;100844.97;1708895;82;21034;-41
2021/05/12 04:49:31;;;;;;;0.10;0.10;;;;;;;8.90;80.06;100838.73;1712251;81;21059;-41
2021/05/12 04:51:58;;;;;;;0.00;0.00;;;;;;;8.94;79.95;100850.77;1723029;81;21204;-42
2021/05/12 04:54:24;;;;;;;0.00;0.00;;;;;;;9.01;80.47;100848.65;1714815;82;21508;-40
2021/05/12 04:56:50;;;;;;;0.00;0.00;;;;;;;9.11;80.10;100844.65;1719523;82;21056;-41
2021/05/12 04:59:17;;;;;;;0.35;0.30;;;;;;;9.20;79.90;100850.45;1715362;83;21051;-40
2021/05/12 05:01:43;;;;;;;0.00;0.00;;;;;;;9.25;79.77;100848.59;1715254;81;21569;-40
2021/05/12 05:04:12;;;;;;;0.28;0.28;;;;;;;9.34;79.82;100848.91;1719388;82;21072;-40
2021/05/12 05:06:38;;;;;;;0.30;0.13;;;;;;;9.41;79.99;100849.51;1714288;82;21032;-40
2021/05/12 05:09:06;;;;;;;0.20;0.20;;;;;;;9.48;79.20;100859.66;1694664;83;21071;-42
2021/05/12 05:11:33;;;;;;;0.13;0.10;;;;;;;9.53;79.58;100856.69;1703715;83;21107;-41
2021/05/12 05:13:59;;;;;;;0.10;0.10;;;;;;;9.59;79.45;100848.81;1704015;81;21031;-40
2021/05/12 05:16:25;;;;;;;0.10;0.10;;;;;;;9.69;79.60;100847.50;1696913;83;21632;-41
2021/05/12 05:18:52;;;;;;;0.10;0.10;;;;;;;9.79;79.09;100847.59;1695506;83;21076;-40
2021/05/12 05:21:18;;;;;;;1.22;1.12;;;;;;;9.92;78.24;100856.39;1694334;83;21060;-43
2021/05/12 05:23:44;;;;;;;0.20;0.20;;;;;;;10.03;78.72;100856.16;1680636;81;21059;-41
2021/05/12 05:26:11;;;;;;;0.20;0.20;;;;;;;10.17;77.91;100852.41;1670762;83;21051;-41
2021/05/12 05:28:37;;;;;;;0.10;0.10;;;;;;;10.30;76.65;100858.76;1690701;83;21087;-40
2021/05/12 05:31:03;;;;;;;0.00;0.00;;;;;;;10.38;76.27;100862.06;1693689;83;21043;-40
2021/05/12 05:33:48;;;;;;;0.30;0.23;;;;;;;10.42;75.57;100861.81;1723706;82;21048;-42
2021/05/12 05:36:32;;;;;;;0.20;0.20;;;;;;;10.44;75.39;100867.84;1694147;83;21020;-40
2021/05/12 05:39:17;;;;;;;0.33;0.33;;;;;;;10.49;75.69;100855.56;1693915;83;21051;-41
2021/05/12 05:42:07;;;;;;;0.30;0.30;;;;;;;10.60;75.60;100864.59;1695655;81;21052;-42
2021/05/12 05:44:51;;;;;;;0.10;0.10;;;;;;;10.66;74.49;100872.55;1692107;83;21024;-40
2021/05/12 05:47:36;;;;;;;0.25;0.25;;;;;;;10.68;74.46;100854.49;1719057;82;21055;-42
2021/05/12 05:50:21;;;;;;;0.10;0.10;;;;;;;10.69;73.76;100859.70;1719155;82;21024;-41
2021/05/12 05:53:06;;;;;;;0.10;0.10;;;;;;;10.69;74.01;100854.78;1725063;82;21021;-41
2021/05/12 05:55:50;;;;;;;0.10;0.10;;;;;;;10.75;74.01;100864.07;1693408;83;21052;-40
2021/05/12 05:58:35;;;;;;;0.10;0.10;;;;;;;10.88;73.93;100863.27;1711019;81;21066;-42
2021/05/12 06:01:19;;;;;;;0.20;0.20;;;;;;;11.02;73.26;100856.19;1693528;83;21598;-41
2021/05/12 06:03:46;;;;;;;0.00;0.00;;;;;;;11.08;72.15;100858.40;1737895;82;21035;-40
2021/05/12 06:06:30;;;;;;;0.30;0.30;;;;;;;11.09;71.65;100859.48;1699210;82;21052;-42
2021/05/12 06:09:15;;;;;;;0.00;0.00;;;;;;;11.14;72.18;100851.27;1692313;82;21099;-40
2021/05/12 06:11:59;;;;;;;0.00;0.00;;;;;;;11.27;70.52;100857.29;1715395;82;21143;-40
2021/05/12 06:14:44;;;;;;;0.00;0.00;;;;;;;11.40;70.20;100849.36;1738933;80;21043;-42
2021/05/12 06:17:28;;;;;;;0.00;0.00;;;;;;;11.56;70.34;100851.52;1720193;82;20944;-40
2021/05/12 06:20:14;;;;;;;0.10;0.10;;;;;;;11.75;69.38;100852.32;1693722;83;21048;-42
2021/05/12 06:23:04;;;;;;;0.10;0.10;;;;;;;11.94;69.87;100845.70;1717860;82;21055;-41
2021/05/12 06:25:51;;;;;;;0.00;0.00;;;;;;;12.15;69.24;100848.65;1743969;82;21631;-41
2021/05/12 06:28:35;;;;;;;0.00;0.00;;;;;;;12.34;68.15;100846.64;1721043;81;21059;-41
2021/05/12 06:31:21;;;;;;;0.00;0.00;;;;;;;12.48;66.84;100847.11;1657176;84;21116;-41
2021/05/12 06:34:07;;;;;;;0.00;0.00;;;;;;;12.53;65.81;100849.56;1665391;84;20909;-40
2021/05/12 06:36:51;;;;;;;0.00;0.00;;;;;;;12.37;65.03;100832.40;1694964;82;21036;-40
2021/05/12 06:39:36;;;;;;;0.10;0.10;;;;;;;12.21;65.18;100843.96;1721885;81;21015;-42
2021/05/12 06:42:03;;;;;;;0.00;0.00;;;;;;;12.10;65.83;100841.83;1705753;83;21111;-41
2021/05/12 06:44:29;;;;;;;0.00;0.00;;;;;;;12.02;66.23;100843.23;1687453;83;21024;-42
2021/05/12 06:46:55;;;;;;;0.00;0.00;;;;;;;11.95;66.22;100843.26;1703002;82;22554;-41
2021/05/12 06:49:23;;;;;;;0.30;0.30;;;;;;;11.86;66.59;100848.44;1695227;83;21041;-41
2021/05/12 06:51:51;;;;;;;0.42;0.42;;;;;;;11.77;66.45;100843.25;1701140;82;21024;-40
2021/05/12 06:54:17;;;;;;;0.65;0.65;;;;;;;11.71;66.91;100849.85;1694313;82;21036;-41
2021/05/12 06:56:43;;;;;;;0.47;0.40;;;;;;;11.72;67.32;100848.22;1719782;81;20998;-40
2021/05/12 06:59:09;;;;;;;0.20;0.13;;;;;;;11.77;66.64;100846.84;1736069;81;21572;-40
2021/05/12 07:01:36;;;;;;;0.10;0.10;;;;;;;11.76;66.54;100847.10;1719219;82;21040;-40
2021/05/12 07:04:03;;;;;;;0.03;0.03;;;;;;;11.73;66.74;100845.73;1713748;81;21031;-41
2021/05/12 07:06:29;;;;;;;0.25;0.25;;;;;;;11.71;66.63;100846.56;1720857;81;21099;-40
2021/05/12 07:08:55;;;;;;;0.23;0.23;;;;;;;11.76;67.28;100841.07;1695436;82;21088;-41
2021/05/12 07:11:23;;;;;;;0.53;0.47;;;;;;;11.82;67.05;100839.97;1710376;83;21399;-40
2021/05/12 07:13:52;;;;;;;0.20;0.20;;;;;;;11.86;66.56;100844.33;1711402;82;21028;-42
2021/05/12 07:16:19;;;;;;;0.00;0.00;;;;;;;11.86;66.98;100856.66;1762026;80;21026;-40
2021/05/12 07:18:46;;;;;;;0.10;0.10;;;;;;;11.81;65.99;100855.30;1706100;83;21103;-42
2021/05/12 07:21:12;;;;;;;0.10;0.10;;;;;;;11.72;65.36;100855.59;1692449;83;21039;-41
2021/05/12 07:23:42;;;;;;;0.20;0.20;;;;;;;11.66;66.21;100854.78;1705416;81;21056;-40
2021/05/12 07:26:06;;;;;;;0.10;0.10;;;;;;;11.65;66.42;100856.42;1727222;80;21001;-40
2021/05/12 07:28:33;;;;;;;0.00;0.00;;;;;;;11.66;66.81;100855.34;1710980;83;21084;-40
2021/05/12 07:30:59;;;;;;;0.00;0.00;;;;;;;11.68;67.32;100849.05;1744440;82;21055;-41
2021/05/12 07:33:25;;;;;;;0.10;0.10;;;;;;;11.72;67.16;100847.37;1707566;82;21606;-41
2021/05/12 07:35:52;;;;;;;0.10;0.10;;;;;;;11.77;67.62;100844.63;1712630;82;21056;-40
2021/05/12 07:38:18;;;;;;;0.08;0.08;;;;;;;11.86;67.02;100838.05;1737360;82;21112;-41
2021/05/12 07:40:45;;;;;;;0.37;0.28;;;;;;;11.94;66.35;100834.23;1723797;81;21068;-40
2021/05/12 07:43:12;;;;;;;0.47;0.47;;;;;;;11.99;66.46;100830.63;1738985;80;21040;-41
2021/05/12 07:45:39;;;;;;;0.20;0.20;;;;;;;12.05;66.34;100829.52;1722785;83;21084;-40
2021/05/12 07:48:11;;;;;;;0.23;0.23;;;;;;;12.08;65.69;100829.52;1710886;81;21077;-43
2021/05/12 07:50:38;;;;;;;0.17;0.17;;;;;;;12.04;64.89;100839.66;1725754;81;21029;-41
2021/05/12 07:53:06;;;;;;;0.05;0.05;;;;;;;12.00;64.97;100835.84;1758286;80;21469;-40
2021/05/12 07:55:33;;;;;;;0.23;0.23;;;;;;;11.98;65.39;100831.18;1699805;81;21088;-41
2021/05/12 07:58:00;;;;;;;0.20;0.20;;;;;;;11.97;65.62;100824.63;1757148;81;21014;-41
2021/05/12 08:00:26;;;;;;;0.45;0.45;;;;;;;12.00;66.19;100824.06;1757871;80;21019;-42
2021/05/12 08:02:53;;;;;;;0.37;0.37;;;;;;;12.04;65.75;100828.70;1738315;82;21074;-41
2021/05/12 08:05:19;;;;;;;0.20;0.20;;;;;;;12.10;65.73;100828.69;1714322;81;21047;-40
2021/05/12 08:07:46;;;;;;;0.10;0.10;;;;;;;12.16;65.45;100827.55;1703071;83;21089;-40
2021/05/12 08:10:12;;;;;;;0.30;0.30;;;;;;;12.20;64.67;100825.89;1728712;81;21074;-42
2021/05/12 08:12:38;;;;;;;0.10;0.10;;;;;;;12.26;65.24;100824.76;1730448;81;21047;-41
2021/05/12 08:15:06;;;;;;;0.10;0.10;;;;;;;12.35;65.40;100817.59;1712019;82;21092;-41
2021/05/12 08:17:32;;;;;;;0.23;0.23;;;;;;;12.46;66.07;100815.08;1741143;81;21048;-40
2021/05/12 08:19:59;;;;;;;0.30;0.30;;;;;;;12.57;64.76;100820.50;1730706;82;21342;-43
2021/05/12 08:22:26;;;;;;;0.40;0.40;;;;;;;12.61;64.54;100821.02;1739293;81;21027;-40
2021/05/12 08:24:52;;;;;;;0.23;0.23;;;;;;;12.66;63.58;100813.29;1767283;81;21055;-41
2021/05/12 08:27:18;;;;;;;0.50;0.50;;;;;;;12.69;63.97;100819.59;1740123;81;21044;-40
2021/05/12 08:29:45;;;;;;;0.10;0.10;;;;;;;12.77;62.23;100814.05;1721080;81;21651;-41
2021/05/12 08:32:14;;;;;;;0.20;0.20;;;;;;;12.80;63.01;100801.95;1718918;81;21063;-43
2021/05/12 08:34:40;;;;;;;0.40;0.40;;;;;;;12.94;62.40;100801.32;1732321;81;21039;-41
2021/05/12 08:37:07;;;;;;;0.53;0.53;;;;;;;13.08;62.33;100789.40;1714616;81;20952;-40
2021/05/12 08:39:34;;;;;;;0.37;0.30;;;;;;;13.26;62.53;100789.23;1764687;81;21567;-41
2021/05/12 08:42:00;;;;;;;0.30;0.30;;;;;;;13.41;62.57;100781.98;1724829;81;21034;-42
2021/05/12 08:44:27;;;;;;;0.40;0.40;;;;;;;13.72;61.88;100778.34;1721963;82;21690;-41
2021/05/12 08:46:53;;;;;;;0.30;0.30;;;;;;;14.12;62.68;100773.44;1724448;81;21023;-41
2021/05/12 08:49:20;;;;;;;0.55;0.53;;;;;;;14.50;61.66;100772.92;1701624;83;20936;-40
2021/05/12 08:51:46;;;;;;;0.42;0.30;;;;;;;14.77;60.30;100759.06;1720340;81;21016;-41
2021/05/12 08:54:13;;;;;;;1.02;0.40;;;;;;;14.92;59.41;100764.31;1715157;81;21051;-40
2021/05/12 08:56:40;;;;;;;0.13;0.10;;;;;;;15.02;58.50;100754.50;1737185;81;21027;-40
2021/05/12 08:59:06;;;;;;;0.70;0.45;;;;;;;15.04;57.07;100749.52;1717745;83;21642;-42
2021/05/12 09:01:33;;;;;;;0.72;0.72;;;;;;;14.97;57.38;100751.03;1722308;81;21039;-40
2021/05/12 09:04:01;;;;;;;0.08;0.08;;;;;;;15.09;58.03;100751.94;1725643;83;21075;-42
2021/05/12 09:06:27;;;;;;;0.10;0.10;;;;;;;15.22;58.73;100751.14;1733531;81;21011;-41
2021/05/12 09:08:53;;;;;;;0.20;0.20;;;;;;;15.38;58.39;100753.88;1709626;83;21069;-42
2021/05/12 09:11:19;;;;;;;0.05;0.05;;;;;;;15.52;55.52;100755.81;1708036;81;21564;-41
2021/05/12 09:13:49;;;;;;;0.28;0.20;;;;;;;15.62;56.02;100753.66;1701700;83;21058;-41
2021/05/12 09:16:27;;;;;;;0.10;0.10;;;;;;;15.86;55.97;100752.11;1740776;81;21039;-41
2021/05/12 09:19:08;;;;;;;0.30;0.20;;;;;;;16.16;53.28;100747.06;1711559;83;21040;-42
2021/05/12 09:21:57;;;;;;;0.20;0.20;;;;;;;16.09;51.26;100749.42;1724492;81;21611;-41
2021/05/12 09:24:34;;;;;;;0.42;0.42;;;;;;;15.77;54.09;100740.17;1742406;81;21119;-41
2021/05/12 09:27:06;;;;;;;0.03;0.03;;;;;;;15.51;51.81;100748.68;1723073;81;21055;-40
2021/05/12 09:29:37;;;;;;;0.10;0.10;;;;;;;15.19;53.82;100737.98;1706429;82;21068;-43
2021/05/12 09:32:14;;;;;;;0.07;0.07;;;;;;;15.32;56.36;100733.05;1698612;83;21073;-41
2021/05/12 09:35:05;;;;;;;0.00;0.00;;;;;;;15.63;54.41;100733.84;1738086;81;21039;-41
2021/05/12 09:37:40;;;;;;;0.45;0.28;;;;;;;15.69;52.94;100742.24;1687348;83;21029;-42
2021/05/12 09:40:16;;;;;;;0.20;0.20;;;;;;;15.52;53.60;100740.66;1729390;82;21058;-40
2021/05/12 09:42:43;;;;;;;0.13;0.13;;;;;;;15.37;54.33;100740.39;1770178;79;21537;-40
2021/05/12 09:45:15;;;;;;;0.10;0.10;;;;;;;15.23;55.32;100742.59;1694344;83;21023;-40
2021/05/12 09:47:49;;;;;;;0.10;0.10;;;;;;;15.33;56.00;100747.09;1669820;84;21496;-42
2021/05/12 09:50:31;;;;;;;0.00;0.00;;;;;;;15.31;53.52;100747.95;1684532;83;21582;-41
2021/05/12 09:52:55;;;;;;;0.57;0.57;;;;;;;14.88;53.27;100762.45;1707584;82;21575;-40
2021/05/12 09:55:33;;;;;;;0.37;0.35;;;;;;;14.23;56.77;100760.40;1699783;83;20949;-40
2021/05/12 09:58:08;;;;;;;0.10;0.10;;;;;;;13.82;58.15;100756.23;1660972;85;21087;-40
2021/05/12 10:00:41;;;;;;;0.55;0.55;;;;;;;13.57;58.19;100745.01;1717839;81;21050;-40
2021/05/12 10:03:13;;;;;;;0.00;0.00;;;;;;;13.50;59.58;100735.77;1722822;81;21036;-41
2021/05/12 10:05:57;;;;;;;0.20;0.20;;;;;;;13.62;60.64;100743.58;1688766;83;20938;-39
2021/05/12 10:08:31;;;;;;;0.20;0.20;;;;;;;13.83;59.76;100737.86;1674550;85;21077;-41
2021/05/12 10:11:04;;;;;;;0.00;0.00;;;;;;;14.13;59.78;100738.00;1672527;83;21568;-39
2021/05/12 10:13:31;;;;;;;0.00;0.00;;;;;;;14.46;60.14;100725.13;1669840;84;21071;-40
2021/05/12 10:15:58;;;;;;;0.10;0.10;;;;;;;14.79;59.89;100727.39;1683810;84;21063;-40
2021/05/12 10:18:25;;;;;;;0.20;0.20;;;;;;;15.02;58.66;100722.86;1690119;83;21056;-41
2021/05/12 10:20:57;;;;;;;0.10;0.10;;;;;;;15.32;58.26;100719.28;1707640;82;21050;-40
2021/05/12 10:23:22;;;;;;;0.50;0.20;;;;;;;15.45;56.66;100721.25;1697355;82;21117;-41
2021/05/12 10:25:48;;;;;;;0.15;0.15;;;;;;;15.36;55.66;100723.06;1709295;83;21584;-40
2021/05/12 10:28:14;;;;;;;0.33;0.30;;;;;;;15.21;54.25;100718.67;1688441;84;21039;-41
2021/05/12 10:30:41;;;;;;;0.60;0.60;;;;;;;15.10;55.34;100712.27;1685629;82;21543;-41
2021/05/12 10:33:11;;;;;;;0.40;0.40;;;;;;;15.08;57.01;100718.06;1713932;82;21696;-41
2021/05/12 10:35:38;;;;;;;0.15;0.10;;;;;;;15.14;56.88;100713.31;1702061;82;21036;-41
2021/05/12 10:38:05;;;;;;;0.10;0.10;;;;;;;15.27;56.57;100712.50;1703213;82;21143;-40
2021/05/12 10:40:39;;;;;;;0.10;0.10;;;;;;;15.46;55.38;100710.47;1677424;82;21043;-41
2021/05/12 10:43:26;;;;;;;0.10;0.10;;;;;;;15.71;54.80;100706.98;1709753;82;21499;-41
2021/05/12 10:46:04;;;;;;;0.35;0.35;;;;;;;15.91;52.90;100711.23;1731344;80;21465;-41
2021/05/12 10:48:47;;;;;;;0.30;0.30;;;;;;;16.04;52.11;100702.68;1737506;82;21077;-42
2021/05/12 10:51:33;;;;;;;0.03;0.03;;;;;;;16.12;55.02;100706.91;1725453;82;21044;-41
2021/05/12 10:54:06;;;;;;;0.20;0.20;;;;;;;16.31;51.62;100701.78;1693998;83;21615;-42
2021/05/12 10:56:42;;;;;;;0.00;0.00;;;;;;;16.37;52.96;100700.55;1694219;81;21748;-40
2021/05/12 10:59:12;;;;;;;0.40;0.40;;;;;;;16.43;49.78;100696.53;1724946;81;20956;-40
2021/05/12 11:01:49;;;;;;;0.65;0.30;;;;;;;16.46;51.02;100704.17;1743426;81;21071;-41
2021/05/12 11:04:18;;;;;;;10.75;0.80;;;;;;;16.37;50.07;100696.95;1704045;82;21110;-40
2021/05/12 11:06:53;;;;;;;0.10;0.10;;;;;;;16.23;51.36;100699.21;1715516;83;21016;-41
2021/05/12 11:09:22;;;;;;;0.00;0.00;;;;;;;16.08;52.95;100689.92;1693808;83;21060;-41
2021/05/12 11:11:55;;;;;;;0.03;0.03;;;;;;;16.04;52.62;100684.20;1746852;80;21541;-40
2021/05/12 11:14:32;;;;;;;0.17;0.17;;;;;;;16.04;51.91;100688.33;1731964;81;21530;-40
2021/05/12 11:17:14;;;;;;;0.10;0.10;;;;;;;15.88;52.15;100686.48;1738701;80;21722;-41
2021/05/12 11:19:46;;;;;;;;;;;;;;;15.66;52.15;100685.83;1722275;82;21000;-41
2021/05/12 11:33:35;;;;;;;0.07;0.07;;;;;;;15.38;54.29;100672.64;1695913;81;21447;-41
2021/05/12 11:36:15;;;;;;;0.40;0.40;;;;;;;15.73;55.44;100652.96;1692923;83;21858;-41
2021/05/12 11:38:38;;;;;;;0.10;0.10;;;;;;;16.38;53.11;100652.53;1685598;83;21509;-40
2021/05/12 11:41:08;;;;;;;0.50;0.30;;;;;;;16.97;50.84;100645.53;1713773;81;21016;-41
2021/05/12 11:43:42;;;;;;;0.10;0.10;;;;;;;17.33;49.25;100641.22;1734556;80;21025;-41
2021/05/12 11:46:30;;;;;;;0.20;0.20;;;;;;;17.35;48.18;100649.16;1737380;80;21071;-40
2021/05/12 11:49:06;;;;;;;0.47;0.25;;;;;;;17.13;48.47;100646.72;1727435;81;21023;-41
2021/05/12 11:51:39;;;;;;;0.40;0.35;;;;;;;16.85;49.11;100648.07;1716493;81;21076;-41
2021/05/12 11:54:16;;;;;;;0.30;0.30;;;;;;;16.47;50.38;100647.09;1718567;81;21027;-41